KFMH

Cape Cod Coast Guard Air Station Airport

Falmouth, Massachusetts, USA
METAR KFMH 150315Z AUTO 21007KT 10SM FEW025 SCT041 23/21 A2987 RMK AO2
Observed Flight Rules
Aug-15 @ 03:15 UTC (21 minutes ago) Visual Flight Rules
Wind Visibility Clouds
210° at 7 knots 10 miles
  • Few at 2,500' AGL
  • Scattered at 4,100' AGL
Temperatures Readings
Current 23°C / 73°F
Dewpoint 21°C / 70°F
Humidity 89%
Altimeter 29.87" Hg
Pressure 1012 hPa
Elevation 40
METAR KFMH 150315Z AUTO 21007KT 10SM FEW025 SCT041 23/21 A2987 RMK AO2
Observed Flight Rules
Aug-15 @ 03:15 UTC
(21 minutes ago)
VFR
Wind Visibility
210° at 7 knots 10 miles
Clouds
  • Few at 2,500' AGL
  • Scattered at 4,100' AGL
Temperature Dewpoint
23°C / 73°F 21°C / 70°F
Humidity Altimeter Pressure
89% 29.87" Hg 1012 hPa